createdAt,value
2023-02-25T00:01:51.186Z,10.60
2023-02-25T00:04:22.675Z,11.40
2023-02-25T00:06:50.782Z,11.20
2023-02-25T00:09:18.906Z,11.13
2023-02-25T00:11:47.040Z,10.67
2023-02-25T00:14:16.574Z,11.80
2023-02-25T00:16:44.704Z,11.77
2023-02-25T00:19:13.145Z,11.50
2023-02-25T00:21:41.233Z,12.03
2023-02-25T00:24:16.391Z,11.90
2023-02-25T00:26:45.051Z,10.80
2023-02-25T00:29:13.109Z,12.77
2023-02-25T00:31:42.754Z,11.10
2023-02-25T00:34:11.057Z,11.17
2023-02-25T00:36:39.822Z,11.20
2023-02-25T00:39:09.214Z,11.63
2023-02-25T00:41:37.512Z,11.60
2023-02-25T00:44:06.004Z,12.10
2023-02-25T00:46:34.952Z,12.00
2023-02-25T00:49:04.630Z,10.73
2023-02-25T00:51:34.138Z,11.93
2023-02-25T00:54:02.143Z,12.20
2023-02-25T00:56:31.094Z,11.67
2023-02-25T00:59:00.414Z,11.50
2023-02-25T01:01:30.378Z,12.30
2023-02-25T01:03:59.348Z,13.00
2023-02-25T01:06:32.009Z,11.17
2023-02-25T01:09:01.132Z,13.20
2023-02-25T01:11:31.783Z,11.97
2023-02-25T01:14:01.949Z,11.90
2023-02-25T01:16:31.687Z,11.80
2023-02-25T01:19:02.455Z,12.10
2023-02-25T01:21:35.977Z,12.27
2023-02-25T01:24:07.305Z,12.27
2023-02-25T01:26:37.845Z,11.80
2023-02-25T01:29:08.310Z,11.77
2023-02-25T01:31:38.284Z,11.43
2023-02-25T01:34:08.774Z,11.50
2023-02-25T01:36:38.429Z,11.57
2023-02-25T01:39:08.681Z,12.30
2023-02-25T01:41:38.694Z,12.57
2023-02-25T01:44:13.017Z,13.10
2023-02-25T01:46:42.636Z,12.17
2023-02-25T01:49:14.488Z,11.50
2023-02-25T01:51:47.107Z,11.93
2023-02-25T01:54:16.134Z,12.17
2023-02-25T01:56:49.451Z,13.23
2023-02-25T01:59:19.117Z,12.03
2023-02-25T02:01:47.466Z,12.50
2023-02-25T02:04:17.396Z,11.60
2023-02-25T02:06:49.124Z,11.27
2023-02-25T02:09:21.113Z,11.77
2023-02-25T02:11:49.261Z,11.90
2023-02-25T02:14:21.824Z,12.97
2023-02-25T02:17:10.665Z,11.47
2023-02-25T02:19:57.097Z,11.43
2023-02-25T02:22:35.353Z,12.00
2023-02-25T02:25:36.162Z,11.80
2023-02-25T02:28:47.352Z,12.40
2023-02-25T02:31:39.910Z,11.37
2023-02-25T02:34:19.815Z,10.87
2023-02-25T02:36:57.466Z,11.50
2023-02-25T02:39:32.295Z,11.40
2023-02-25T02:42:09.401Z,11.47
2023-02-25T02:44:44.934Z,11.73
2023-02-25T02:47:19.875Z,10.80
2023-02-25T02:49:50.694Z,11.13
2023-02-25T02:52:23.747Z,10.67
2023-02-25T02:54:57.955Z,10.90
2023-02-25T02:57:28.535Z,12.27
2023-02-25T03:00:01.602Z,10.53
2023-02-25T03:02:36.647Z,10.70
2023-02-25T03:05:12.236Z,10.97
2023-02-25T03:07:46.359Z,11.20
2023-02-25T03:10:19.179Z,10.70
2023-02-25T03:12:47.280Z,10.40
2023-02-25T03:15:15.545Z,10.23
2023-02-25T03:17:49.911Z,10.33
2023-02-25T03:20:21.838Z,10.57
2023-02-25T03:22:52.820Z,10.50
2023-02-25T03:25:24.755Z,10.20
2023-02-25T03:27:56.227Z,10.73
2023-02-25T03:30:30.709Z,10.80
2023-02-25T03:33:04.145Z,10.47
2023-02-25T03:35:35.445Z,10.93
2023-02-25T03:38:07.766Z,10.13
2023-02-25T03:40:37.852Z,9.40
2023-02-25T03:43:10.746Z,9.53
2023-02-25T03:45:42.136Z,10.10
2023-02-25T03:48:13.660Z,9.00
2023-02-25T03:50:45.807Z,9.27
2023-02-25T03:53:14.080Z,8.93
2023-02-25T03:55:42.237Z,9.30
2023-02-25T03:58:10.911Z,10.00
2023-02-25T04:00:41.849Z,10.10
2023-02-25T04:03:12.570Z,9.60
2023-02-25T04:05:40.740Z,9.00
2023-02-25T04:08:15.288Z,9.70
2023-02-25T04:10:44.175Z,10.23
2023-02-25T04:13:12.378Z,9.30
2023-02-25T04:15:40.626Z,9.50
2023-02-25T04:18:09.254Z,10.30
2023-02-25T04:20:39.049Z,10.13
2023-02-25T04:23:07.422Z,9.53
2023-02-25T04:25:37.614Z,9.57
2023-02-25T04:28:05.918Z,8.90
2023-02-25T04:30:34.456Z,8.40
2023-02-25T04:33:02.850Z,9.43
2023-02-25T04:35:30.976Z,8.60
2023-02-25T04:38:00.440Z,7.70
2023-02-25T04:40:29.033Z,7.30
2023-02-25T04:42:57.196Z,7.10
2023-02-25T04:45:27.061Z,6.90
2023-02-25T04:47:57.764Z,6.20
2023-02-25T04:50:29.087Z,6.50
2023-02-25T04:52:58.557Z,6.50
2023-02-25T04:55:28.210Z,6.77
2023-02-25T04:57:56.391Z,6.33
2023-02-25T05:00:25.458Z,5.20
2023-02-25T05:02:53.535Z,5.40
2023-02-25T05:05:21.659Z,5.30
2023-02-25T05:07:49.727Z,6.07
2023-02-25T05:10:18.896Z,5.83
2023-02-25T05:12:48.331Z,6.53
2023-02-25T05:15:16.398Z,5.50
2023-02-25T05:17:44.452Z,5.53
2023-02-25T05:20:13.277Z,6.30
2023-02-25T05:22:41.923Z,5.47
2023-02-25T05:25:11.243Z,5.60
2023-02-25T05:27:39.438Z,5.40
2023-02-25T05:30:11.261Z,5.80
2023-02-25T05:32:40.025Z,5.63
2023-02-25T05:35:10.038Z,5.97
2023-02-25T05:37:38.906Z,5.90
2023-02-25T05:40:09.506Z,5.70
2023-02-25T05:42:38.449Z,5.60
2023-02-25T05:45:09.177Z,6.03
2023-02-25T05:47:37.338Z,5.60
2023-02-25T05:50:06.184Z,6.17
2023-02-25T05:52:34.382Z,5.80
2023-02-25T05:55:02.994Z,6.17
2023-02-25T05:57:31.319Z,10.63
2023-02-25T05:59:59.377Z,6.27
2023-02-25T06:02:29.013Z,5.97
2023-02-25T06:04:57.312Z,6.10
2023-02-25T06:07:25.467Z,6.47
2023-02-25T06:09:55.112Z,5.63
2023-02-25T06:12:23.264Z,6.30
2023-02-25T06:14:51.393Z,6.37
2023-02-25T06:17:19.449Z,5.77
2023-02-25T06:19:48.957Z,5.63
2023-02-25T06:22:17.097Z,6.10
2023-02-25T06:24:45.359Z,5.50
2023-02-25T06:27:13.764Z,5.60
2023-02-25T06:29:42.596Z,5.60
2023-02-25T06:32:11.272Z,5.60
2023-02-25T06:34:39.998Z,6.17
2023-02-25T06:37:09.629Z,5.17
2023-02-25T06:39:37.795Z,5.27
2023-02-25T06:42:06.135Z,6.07
2023-02-25T06:44:34.242Z,5.83
2023-02-25T06:47:02.365Z,5.33
2023-02-25T06:49:31.091Z,5.60
2023-02-25T06:51:59.166Z,5.63
2023-02-25T06:54:29.021Z,5.90
2023-02-25T06:56:57.112Z,5.43
2023-02-25T06:59:25.149Z,5.90
2023-02-25T07:01:53.337Z,5.67
2023-02-25T07:04:21.439Z,6.17
2023-02-25T07:06:49.600Z,5.40
2023-02-25T07:09:17.688Z,6.07
2023-02-25T07:11:47.139Z,6.22
2023-02-25T07:14:16.330Z,6.50
2023-02-25T07:16:44.397Z,6.57
2023-02-25T07:19:15.039Z,6.40
2023-02-25T07:21:43.317Z,6.00
2023-02-25T07:24:11.636Z,6.40
2023-02-25T07:26:40.155Z,6.93
2023-02-25T07:29:09.711Z,5.90
2023-02-25T07:31:37.947Z,5.50
2023-02-25T07:34:07.634Z,5.97
2023-02-25T07:36:37.912Z,5.97
2023-02-25T07:39:07.411Z,6.40
2023-02-25T07:41:35.803Z,6.80
2023-02-25T07:44:05.112Z,5.07
2023-02-25T07:46:34.709Z,4.47
2023-02-25T07:49:03.320Z,5.40
2023-02-25T07:51:35.119Z,5.30
2023-02-25T07:54:03.527Z,5.47
2023-02-25T07:56:32.083Z,5.00
2023-02-25T07:59:00.230Z,4.90
2023-02-25T08:01:31.560Z,5.30
2023-02-25T08:04:04.151Z,5.67
2023-02-25T08:06:32.741Z,5.23
2023-02-25T08:09:00.834Z,5.07
2023-02-25T08:11:28.930Z,5.27
2023-02-25T08:13:56.995Z,5.57
2023-02-25T08:16:25.118Z,5.20
2023-02-25T08:18:54.325Z,5.17
2023-02-25T08:21:24.871Z,5.03
2023-02-25T08:23:54.203Z,5.40
2023-02-25T08:26:24.169Z,5.07
2023-02-25T08:28:52.789Z,4.80
2023-02-25T08:31:22.240Z,5.47
2023-02-25T08:33:52.857Z,4.40
2023-02-25T08:36:24.002Z,4.60
2023-02-25T08:38:52.711Z,4.50
2023-02-25T08:41:22.472Z,4.80
2023-02-25T08:43:52.029Z,4.67
2023-02-25T08:46:21.290Z,4.80
2023-02-25T08:48:50.364Z,4.67
2023-02-25T08:51:19.163Z,4.20
2023-02-25T08:53:48.672Z,4.43
2023-02-25T08:56:17.666Z,4.13
2023-02-25T08:58:45.820Z,4.30
2023-02-25T09:01:15.572Z,4.70
2023-02-25T09:03:51.319Z,4.23
2023-02-25T09:06:20.378Z,4.40
2023-02-25T09:08:56.158Z,5.63
2023-02-25T09:11:30.236Z,4.83
2023-02-25T09:14:01.138Z,5.27
2023-02-25T09:16:30.530Z,4.67
2023-02-25T09:18:59.039Z,4.90
2023-02-25T09:21:27.148Z,5.00
2023-02-25T09:23:56.650Z,4.70
2023-02-25T09:26:25.185Z,4.90
2023-02-25T09:28:53.265Z,4.33
2023-02-25T09:31:21.607Z,5.23
2023-02-25T09:33:49.906Z,4.50
2023-02-25T09:36:20.756Z,4.10
2023-02-25T09:38:51.876Z,5.23
2023-02-25T09:41:28.819Z,4.50
2023-02-25T09:44:05.860Z,5.57
2023-02-25T09:46:37.443Z,5.43
2023-02-25T09:49:13.405Z,6.50
2023-02-25T09:51:45.803Z,3.90
2023-02-25T09:54:21.732Z,4.20
2023-02-25T09:56:51.346Z,4.10
2023-02-25T09:59:22.220Z,3.90
2023-02-25T10:01:55.276Z,3.47
2023-02-25T10:04:31.410Z,3.60
2023-02-25T10:07:04.482Z,3.30
2023-02-25T10:09:40.171Z,4.60
2023-02-25T10:12:20.925Z,3.50
2023-02-25T10:15:00.896Z,2.80
2023-02-25T10:17:43.307Z,3.43
2023-02-25T10:20:38.902Z,2.70
2023-02-25T10:23:17.987Z,2.40
2023-02-25T10:25:57.151Z,3.00
2023-02-25T10:28:27.775Z,4.20
2023-02-25T10:31:00.617Z,3.00
2023-02-25T10:33:34.746Z,2.90
2023-02-25T10:36:10.917Z,3.23
2023-02-25T10:38:43.058Z,4.87
2023-02-25T10:41:11.185Z,3.50
2023-02-25T10:43:41.102Z,3.00
2023-02-25T10:46:15.403Z,3.70
2023-02-25T10:48:47.807Z,3.60
2023-02-25T10:51:16.921Z,3.07
2023-02-25T10:54:06.472Z,3.43
2023-02-25T10:56:42.471Z,3.80
2023-02-25T10:59:28.872Z,3.73
2023-02-25T11:01:59.887Z,3.80
2023-02-25T11:04:33.990Z,3.43
2023-02-25T11:07:02.165Z,4.23
2023-02-25T11:09:37.068Z,3.20
2023-02-25T11:12:19.835Z,3.20
2023-02-25T11:14:49.304Z,6.43
2023-02-25T11:17:20.346Z,2.60
2023-02-25T11:19:51.834Z,3.40
2023-02-25T11:22:26.400Z,4.27
2023-02-25T11:25:00.618Z,4.83
2023-02-25T11:27:37.173Z,4.00
2023-02-25T11:30:17.410Z,3.80
2023-02-25T11:32:49.886Z,4.20
2023-02-25T11:35:21.288Z,3.03
2023-02-25T11:37:49.497Z,3.37
2023-02-25T11:40:26.376Z,2.97
2023-02-25T11:43:17.098Z,3.30
2023-02-25T11:45:56.609Z,3.80
2023-02-25T11:48:29.788Z,3.67
2023-02-25T11:51:06.144Z,4.13
2023-02-25T11:53:47.670Z,3.20
2023-02-25T11:56:25.530Z,4.00
2023-02-25T11:59:07.108Z,4.50
2023-02-25T12:01:48.408Z,4.47
2023-02-25T12:04:40.307Z,3.20
2023-02-25T12:07:27.226Z,3.93
2023-02-25T12:10:26.106Z,3.50
2023-02-25T12:13:29.947Z,3.83
2023-02-25T12:16:46.828Z,3.30
2023-02-25T12:19:41.084Z,3.73
2023-02-25T12:22:36.806Z,3.70
2023-02-25T12:25:27.147Z,3.43
2023-02-25T12:28:31.804Z,4.00
2023-02-25T12:31:37.065Z,5.00
2023-02-25T12:34:39.179Z,4.13
2023-02-25T12:37:30.909Z,3.97
2023-02-25T12:40:09.193Z,3.97
2023-02-25T12:42:49.366Z,3.77
2023-02-25T12:45:37.534Z,4.33
2023-02-25T12:48:34.109Z,4.20
2023-02-25T12:51:43.558Z,4.50
2023-02-25T12:54:34.287Z,4.53
2023-02-25T12:57:18.286Z,3.97
2023-02-25T13:00:24.812Z,4.13
2023-02-25T13:03:15.407Z,3.67
2023-02-25T13:06:07.818Z,3.90
2023-02-25T13:08:52.605Z,3.70
2023-02-25T13:11:28.766Z,4.10
2023-02-25T13:14:29.671Z,3.47
2023-02-25T13:17:13.597Z,4.13
2023-02-25T13:20:20.641Z,4.00
2023-02-25T13:22:57.958Z,4.03
2023-02-25T13:25:51.584Z,4.03
2023-02-25T13:28:35.149Z,5.17
2023-02-25T13:31:10.029Z,4.80
2023-02-25T13:34:03.610Z,4.87
2023-02-25T13:36:48.822Z,4.00
2023-02-25T13:39:29.965Z,4.93
2023-02-25T13:42:17.236Z,5.50
2023-02-25T13:45:16.721Z,4.20
2023-02-25T13:48:00.667Z,5.07
2023-02-25T13:50:47.476Z,4.43
2023-02-25T13:53:36.323Z,4.00
2023-02-25T13:56:28.480Z,3.73
2023-02-25T13:59:13.082Z,3.50
2023-02-25T14:02:04.154Z,4.30
2023-02-25T14:04:50.665Z,3.87
2023-02-25T14:07:46.823Z,3.10
2023-02-25T14:10:27.020Z,3.53
2023-02-25T14:13:17.248Z,3.60
2023-02-25T14:16:00.299Z,3.33
2023-02-25T14:18:48.350Z,3.80
2023-02-25T14:21:54.295Z,3.40
2023-02-25T14:24:30.685Z,4.00
2023-02-25T14:27:10.321Z,4.10
2023-02-25T14:30:00.467Z,4.23
2023-02-25T14:32:44.343Z,4.40
2023-02-25T14:35:43.258Z,4.10
2023-02-25T14:38:13.575Z,5.37
2023-02-25T14:40:47.889Z,4.53
2023-02-25T14:43:37.652Z,4.00
2023-02-25T14:46:23.777Z,4.50
2023-02-25T14:49:01.744Z,4.40
2023-02-25T14:52:02.730Z,4.10
2023-02-25T14:54:55.318Z,3.90
2023-02-25T14:57:52.644Z,3.73
2023-02-25T15:00:59.683Z,3.53
2023-02-25T15:03:49.275Z,3.30
2023-02-25T15:06:46.843Z,4.83
2023-02-25T15:09:34.630Z,3.90
2023-02-25T15:12:21.044Z,4.73
2023-02-25T15:15:16.448Z,4.07
2023-02-25T15:18:14.547Z,5.17
2023-02-25T15:20:44.212Z,4.53
2023-02-25T15:23:16.407Z,4.40
2023-02-25T15:25:48.221Z,4.13
2023-02-25T15:28:38.919Z,5.37
2023-02-25T15:31:28.659Z,3.87
2023-02-25T15:34:43.767Z,4.83
2023-02-25T15:37:28.147Z,4.30
2023-02-25T15:39:59.170Z,4.60
2023-02-25T15:42:53.025Z,3.70
2023-02-25T15:45:42.996Z,3.60
2023-02-25T15:48:33.776Z,3.70
2023-02-25T15:51:03.911Z,3.90
2023-02-25T15:53:49.224Z,4.63
2023-02-25T15:56:50.369Z,4.97
2023-02-25T15:59:40.594Z,3.70
2023-02-25T16:02:39.915Z,3.97
2023-02-25T16:05:21.676Z,4.40
2023-02-25T16:07:54.398Z,4.40
2023-02-25T16:10:27.406Z,4.43
2023-02-25T16:12:58.363Z,5.40
2023-02-25T16:15:33.096Z,4.77
2023-02-25T16:18:14.213Z,4.73
2023-02-25T16:20:47.349Z,4.80
2023-02-25T16:23:16.655Z,5.20
2023-02-25T16:25:54.415Z,4.30
2023-02-25T16:28:33.531Z,4.50
2023-02-25T16:31:07.603Z,4.30
2023-02-25T16:33:43.926Z,4.70
2023-02-25T16:36:20.204Z,4.40
2023-02-25T16:39:06.807Z,5.57
2023-02-25T16:41:38.931Z,4.73
2023-02-25T16:44:09.498Z,5.20
2023-02-25T16:46:41.518Z,5.07
2023-02-25T16:49:18.728Z,5.00
2023-02-25T16:51:48.120Z,5.53
2023-02-25T16:54:20.613Z,6.10
2023-02-25T16:56:51.857Z,5.87
2023-02-25T16:59:24.182Z,6.20
2023-02-25T17:01:58.492Z,6.20
2023-02-25T17:04:29.839Z,6.47
2023-02-25T17:07:13.548Z,6.47
2023-02-25T17:09:47.144Z,6.20
2023-02-25T17:12:19.599Z,6.57
2023-02-25T17:14:51.939Z,6.90
2023-02-25T17:17:26.480Z,7.30
2023-02-25T17:19:54.938Z,7.67
2023-02-25T17:22:24.770Z,7.93
2023-02-25T17:24:54.842Z,7.70
2023-02-25T17:27:24.757Z,7.87
2023-02-25T17:29:54.265Z,7.53
2023-02-25T17:32:24.943Z,6.53
2023-02-25T17:34:55.566Z,6.73
2023-02-25T17:37:26.125Z,7.23
2023-02-25T17:39:55.134Z,7.13
2023-02-25T17:42:34.564Z,7.72
2023-02-25T17:45:08.574Z,7.90
2023-02-25T17:47:38.327Z,7.53
2023-02-25T17:50:22.783Z,7.03
2023-02-25T17:52:51.687Z,6.70
2023-02-25T17:55:26.328Z,7.03
2023-02-25T17:57:58.440Z,6.27
2023-02-25T18:00:31.894Z,7.23
2023-02-25T18:03:17.964Z,7.43
2023-02-25T18:05:53.207Z,6.70
2023-02-25T18:08:23.659Z,6.50
2023-02-25T18:11:19.714Z,6.50
2023-02-25T18:13:47.809Z,6.83
2023-02-25T18:16:39.967Z,6.47
2023-02-25T18:19:27.107Z,6.50
2023-02-25T18:21:56.090Z,7.10
2023-02-25T18:24:32.969Z,7.23
2023-02-25T18:27:03.791Z,8.13
2023-02-25T18:29:32.343Z,9.53
2023-02-25T18:32:02.228Z,10.63
2023-02-25T18:34:30.777Z,8.80
2023-02-25T18:36:59.114Z,8.55
2023-02-25T18:39:27.735Z,8.27
2023-02-25T18:41:55.841Z,9.60
2023-02-25T18:44:24.009Z,8.50
2023-02-25T18:46:52.117Z,8.60
2023-02-25T18:49:21.558Z,8.57
2023-02-25T18:51:51.232Z,8.40
2023-02-25T18:54:19.435Z,7.97
2023-02-25T18:56:47.616Z,7.80
2023-02-25T18:59:15.748Z,9.00
2023-02-25T19:01:44.839Z,7.97
2023-02-25T19:04:17.366Z,7.10
2023-02-25T19:06:47.446Z,6.90
2023-02-25T19:09:16.054Z,6.77
2023-02-25T19:11:44.280Z,6.78
2023-02-25T19:14:18.842Z,7.20
2023-02-25T19:16:47.226Z,7.00
2023-02-25T19:19:18.945Z,6.97
2023-02-25T19:21:48.954Z,6.95
2023-02-25T19:24:20.867Z,6.60
2023-02-25T19:26:49.018Z,7.00
2023-02-25T19:29:17.180Z,6.82
2023-02-25T19:31:46.126Z,6.32
2023-02-25T19:34:14.258Z,6.50
2023-02-25T19:36:42.463Z,7.50
2023-02-25T19:39:11.983Z,7.70
2023-02-25T19:41:40.446Z,6.72
2023-02-25T19:44:09.685Z,6.68
2023-02-25T19:46:42.307Z,6.43
2023-02-25T19:49:16.443Z,6.90
2023-02-25T19:51:48.204Z,6.60
2023-02-25T19:54:20.111Z,6.20
2023-02-25T19:56:51.318Z,6.45
2023-02-25T19:59:19.486Z,6.90
2023-02-25T20:01:49.723Z,6.47
2023-02-25T20:04:18.225Z,7.13
2023-02-25T20:06:46.453Z,6.70
2023-02-25T20:09:15.691Z,6.50
2023-02-25T20:11:46.515Z,8.27
2023-02-25T20:14:15.030Z,6.75
2023-02-25T20:16:44.018Z,6.45
2023-02-25T20:19:12.679Z,7.82
2023-02-25T20:21:40.900Z,6.05
2023-02-25T20:24:09.761Z,6.32
2023-02-25T20:26:37.873Z,6.10
2023-02-25T20:29:08.101Z,6.20
2023-02-25T20:31:36.381Z,5.40
2023-02-25T20:34:05.866Z,6.10
2023-02-25T20:36:39.811Z,5.65
2023-02-25T20:39:25.013Z,6.95
2023-02-25T20:41:54.081Z,7.45
2023-02-25T20:44:23.833Z,6.60
2023-02-25T20:46:52.141Z,5.15
2023-02-25T20:49:21.438Z,5.63
2023-02-25T20:51:50.211Z,5.32
2023-02-25T20:54:24.247Z,5.75
2023-02-25T20:56:55.310Z,5.20
2023-02-25T20:59:24.794Z,4.80
2023-02-25T21:01:53.003Z,4.95
2023-02-25T21:04:21.397Z,4.73
2023-02-25T21:06:49.817Z,5.22
2023-02-25T21:09:18.280Z,3.90
2023-02-25T21:11:46.971Z,4.32
2023-02-25T21:14:15.800Z,4.80
2023-02-25T21:16:45.944Z,4.57
2023-02-25T21:19:14.113Z,3.90
2023-02-25T21:25:22.284Z,4.82
2023-02-25T21:36:28.091Z,4.65
2023-02-25T21:38:56.423Z,4.97
2023-02-25T21:41:24.690Z,4.15
2023-02-25T21:43:53.705Z,5.57
2023-02-25T21:46:21.958Z,4.47
2023-02-25T21:48:54.107Z,5.10
2023-02-25T21:51:24.388Z,4.25
2023-02-25T21:53:56.998Z,4.68
2023-02-25T21:56:26.423Z,3.65
2023-02-25T21:58:56.075Z,3.65
2023-02-25T22:01:26.032Z,3.83
2023-02-25T22:03:54.545Z,3.40
2023-02-25T22:06:24.554Z,3.33
2023-02-25T22:08:55.411Z,3.70
2023-02-25T22:11:25.670Z,3.30
2023-02-25T22:13:53.868Z,3.30
2023-02-25T22:16:23.804Z,3.30
2023-02-25T22:18:52.539Z,4.75
2023-02-25T22:21:22.707Z,3.60
2023-02-25T22:23:52.351Z,2.85
2023-02-25T22:26:24.504Z,3.42
2023-02-25T22:28:55.786Z,3.42
2023-02-25T22:31:24.911Z,3.08
2023-02-25T22:33:53.551Z,3.35
2023-02-25T22:36:21.904Z,3.35
2023-02-25T22:38:50.926Z,3.05
2023-02-25T22:41:22.654Z,3.10
2023-02-25T22:43:51.572Z,3.20
2023-02-25T22:46:21.585Z,2.83
2023-02-25T22:48:51.057Z,2.90
2023-02-25T22:51:23.180Z,3.13
2023-02-25T22:53:55.746Z,3.03
2023-02-25T22:56:28.292Z,3.22
2023-02-25T22:58:57.264Z,3.60
2023-02-25T23:01:26.802Z,3.10
2023-02-25T23:03:57.046Z,2.95
2023-02-25T23:06:42.164Z,2.97
2023-02-25T23:09:12.151Z,3.30
2023-02-25T23:11:42.960Z,3.60
2023-02-25T23:14:11.609Z,3.75
2023-02-25T23:16:41.528Z,3.45
2023-02-25T23:19:13.137Z,3.42
2023-02-25T23:21:41.275Z,3.28
2023-02-25T23:24:13.668Z,3.10
2023-02-25T23:26:44.017Z,3.10
2023-02-25T23:29:13.793Z,2.95
2023-02-25T23:31:44.787Z,3.30
2023-02-25T23:34:15.375Z,2.95
2023-02-25T23:36:44.921Z,3.10
2023-02-25T23:39:15.687Z,3.00
2023-02-25T23:41:45.225Z,2.60
2023-02-25T23:44:14.746Z,3.33
2023-02-25T23:46:45.016Z,3.40
2023-02-25T23:49:16.463Z,2.90
2023-02-25T23:51:50.076Z,2.78
2023-02-25T23:54:20.576Z,2.90
2023-02-25T23:56:52.859Z,3.85
2023-02-25T23:59:23.967Z,2.80
